sensor_id;sensor_type;location;lat;lon;timestamp;P1;durP1;ratioP1;P2;durP2;ratioP2
51521;SDS011;37608;39.766;2.718;2022-09-09T00:03:43;2.15;;;1.35;;
51521;SDS011;37608;39.766;2.718;2022-09-09T00:11:24;1.73;;;0.95;;
51521;SDS011;37608;39.766;2.718;2022-09-09T00:13:54;3.17;;;1.95;;
51521;SDS011;37608;39.766;2.718;2022-09-09T00:16:22;4.25;;;1.33;;
51521;SDS011;37608;39.766;2.718;2022-09-09T00:21:30;4.03;;;1.88;;
51521;SDS011;37608;39.766;2.718;2022-09-09T00:23:57;2.67;;;1.67;;
51521;SDS011;37608;39.766;2.718;2022-09-09T00:29:29;2.10;;;1.05;;
51521;SDS011;37608;39.766;2.718;2022-09-09T00:32:11;2.55;;;1.48;;
51521;SDS011;37608;39.766;2.718;2022-09-09T00:34:37;3.53;;;1.88;;
51521;SDS011;37608;39.766;2.718;2022-09-09T00:37:04;4.70;;;2.45;;
51521;SDS011;37608;39.766;2.718;2022-09-09T00:39:31;17.42;;;2.10;;
51521;SDS011;37608;39.766;2.718;2022-09-09T00:44:33;7.28;;;1.70;;
51521;SDS011;37608;39.766;2.718;2022-09-09T00:49:45;1.70;;;0.98;;
51521;SDS011;37608;39.766;2.718;2022-09-09T00:52:20;1.70;;;1.33;;
51521;SDS011;37608;39.766;2.718;2022-09-09T00:55:05;2.15;;;1.95;;
51521;SDS011;37608;39.766;2.718;2022-09-09T00:57:32;3.38;;;1.27;;
51521;SDS011;37608;39.766;2.718;2022-09-09T01:04:48;2.72;;;1.33;;
51521;SDS011;37608;39.766;2.718;2022-09-09T01:07:17;3.65;;;1.45;;
51521;SDS011;37608;39.766;2.718;2022-09-09T01:09:57;1.85;;;0.85;;
51521;SDS011;37608;39.766;2.718;2022-09-09T01:12:28;1.67;;;1.17;;
51521;SDS011;37608;39.766;2.718;2022-09-09T01:15:07;4.00;;;1.95;;
51521;SDS011;37608;39.766;2.718;2022-09-09T01:17:46;4.32;;;1.27;;
51521;SDS011;37608;39.766;2.718;2022-09-09T01:20:15;2.40;;;1.50;;
51521;SDS011;37608;39.766;2.718;2022-09-09T01:23:04;4.13;;;2.40;;
51521;SDS011;37608;39.766;2.718;2022-09-09T01:28:02;5.15;;;2.00;;
51521;SDS011;37608;39.766;2.718;2022-09-09T01:30:29;4.63;;;1.98;;
51521;SDS011;37608;39.766;2.718;2022-09-09T01:32:56;4.10;;;1.90;;
51521;SDS011;37608;39.766;2.718;2022-09-09T01:38:21;2.20;;;1.40;;
51521;SDS011;37608;39.766;2.718;2022-09-09T01:40:47;14.73;;;1.55;;
51521;SDS011;37608;39.766;2.718;2022-09-09T01:43:13;3.05;;;1.25;;
51521;SDS011;37608;39.766;2.718;2022-09-09T01:45:39;2.92;;;1.00;;
51521;SDS011;37608;39.766;2.718;2022-09-09T01:48:05;5.15;;;1.77;;
51521;SDS011;37608;39.766;2.718;2022-09-09T01:50:31;2.80;;;1.35;;
51521;SDS011;37608;39.766;2.718;2022-09-09T01:52:57;1.67;;;1.33;;
51521;SDS011;37608;39.766;2.718;2022-09-09T01:55:38;0.85;;;0.60;;
51521;SDS011;37608;39.766;2.718;2022-09-09T02:00:29;1.90;;;1.08;;
51521;SDS011;37608;39.766;2.718;2022-09-09T02:05:38;1.30;;;0.88;;
51521;SDS011;37608;39.766;2.718;2022-09-09T02:08:08;1.63;;;1.08;;
51521;SDS011;37608;39.766;2.718;2022-09-09T02:10:41;0.90;;;0.60;;
51521;SDS011;37608;39.766;2.718;2022-09-09T02:13:11;1.23;;;0.80;;
51521;SDS011;37608;39.766;2.718;2022-09-09T02:15:55;0.87;;;0.53;;
51521;SDS011;37608;39.766;2.718;2022-09-09T02:18:27;8.07;;;0.90;;
51521;SDS011;37608;39.766;2.718;2022-09-09T02:20:53;1.15;;;0.90;;
51521;SDS011;37608;39.766;2.718;2022-09-09T02:23:19;5.38;;;1.60;;
51521;SDS011;37608;39.766;2.718;2022-09-09T02:25:44;2.97;;;1.55;;
51521;SDS011;37608;39.766;2.718;2022-09-09T02:28:11;3.92;;;1.17;;
51521;SDS011;37608;39.766;2.718;2022-09-09T02:30:37;3.28;;;1.15;;
51521;SDS011;37608;39.766;2.718;2022-09-09T02:33:04;0.80;;;0.52;;
51521;SDS011;37608;39.766;2.718;2022-09-09T02:35:32;5.03;;;0.63;;
51521;SDS011;37608;39.766;2.718;2022-09-09T02:37:59;1.90;;;0.60;;
51521;SDS011;37608;39.766;2.718;2022-09-09T02:40:25;5.00;;;0.52;;
51521;SDS011;37608;39.766;2.718;2022-09-09T02:42:50;1.80;;;0.95;;
51521;SDS011;37608;39.766;2.718;2022-09-09T02:45:16;3.25;;;1.70;;
51521;SDS011;37608;39.766;2.718;2022-09-09T02:50:33;5.68;;;1.05;;
51521;SDS011;37608;39.766;2.718;2022-09-09T02:57:49;4.20;;;1.13;;
51521;SDS011;37608;39.766;2.718;2022-09-09T03:00:16;2.70;;;1.33;;
51521;SDS011;37608;39.766;2.718;2022-09-09T03:05:12;4.10;;;1.35;;
51521;SDS011;37608;39.766;2.718;2022-09-09T03:07:38;3.75;;;1.95;;
51521;SDS011;37608;39.766;2.718;2022-09-09T03:10:04;3.85;;;1.33;;
51521;SDS011;37608;39.766;2.718;2022-09-09T03:12:30;1.65;;;0.98;;
51521;SDS011;37608;39.766;2.718;2022-09-09T03:14:55;1.20;;;1.00;;
51521;SDS011;37608;39.766;2.718;2022-09-09T03:17:20;1.35;;;0.77;;
51521;SDS011;37608;39.766;2.718;2022-09-09T03:19:46;2.30;;;1.38;;
51521;SDS011;37608;39.766;2.718;2022-09-09T03:22:14;2.95;;;1.77;;
51521;SDS011;37608;39.766;2.718;2022-09-09T03:24:39;1.95;;;0.80;;
51521;SDS011;37608;39.766;2.718;2022-09-09T03:27:05;1.52;;;1.23;;
51521;SDS011;37608;39.766;2.718;2022-09-09T03:29:31;3.30;;;1.58;;
51521;SDS011;37608;39.766;2.718;2022-09-09T03:31:56;2.58;;;1.58;;
51521;SDS011;37608;39.766;2.718;2022-09-09T03:34:21;2.33;;;1.55;;
51521;SDS011;37608;39.766;2.718;2022-09-09T03:36:47;2.85;;;1.60;;
51521;SDS011;37608;39.766;2.718;2022-09-09T03:39:13;3.50;;;0.85;;
51521;SDS011;37608;39.766;2.718;2022-09-09T03:41:39;1.08;;;0.73;;
51521;SDS011;37608;39.766;2.718;2022-09-09T03:44:04;1.48;;;1.05;;
51521;SDS011;37608;39.766;2.718;2022-09-09T03:46:29;2.72;;;1.02;;
51521;SDS011;37608;39.766;2.718;2022-09-09T03:48:56;3.25;;;0.88;;
51521;SDS011;37608;39.766;2.718;2022-09-09T03:51:22;4.38;;;0.98;;
51521;SDS011;37608;39.766;2.718;2022-09-09T03:53:47;10.13;;;1.50;;
51521;SDS011;37608;39.766;2.718;2022-09-09T03:56:13;1.30;;;0.77;;
51521;SDS011;37608;39.766;2.718;2022-09-09T03:58:38;2.03;;;1.00;;
51521;SDS011;37608;39.766;2.718;2022-09-09T04:01:11;3.28;;;1.38;;
51521;SDS011;37608;39.766;2.718;2022-09-09T04:03:40;6.45;;;1.77;;
51521;SDS011;37608;39.766;2.718;2022-09-09T04:06:07;4.88;;;1.77;;
51521;SDS011;37608;39.766;2.718;2022-09-09T04:08:34;2.35;;;1.38;;
51521;SDS011;37608;39.766;2.718;2022-09-09T04:11:01;1.50;;;0.75;;
51521;SDS011;37608;39.766;2.718;2022-09-09T04:13:27;1.58;;;1.38;;
51521;SDS011;37608;39.766;2.718;2022-09-09T04:15:56;1.75;;;1.50;;
51521;SDS011;37608;39.766;2.718;2022-09-09T04:18:22;4.00;;;1.80;;
51521;SDS011;37608;39.766;2.718;2022-09-09T04:20:48;3.67;;;2.08;;
51521;SDS011;37608;39.766;2.718;2022-09-09T04:23:13;3.55;;;2.22;;
51521;SDS011;37608;39.766;2.718;2022-09-09T04:25:43;2.33;;;1.92;;
51521;SDS011;37608;39.766;2.718;2022-09-09T04:28:08;1.93;;;1.50;;
51521;SDS011;37608;39.766;2.718;2022-09-09T04:30:33;2.83;;;1.55;;
51521;SDS011;37608;39.766;2.718;2022-09-09T04:33:00;2.08;;;1.38;;
51521;SDS011;37608;39.766;2.718;2022-09-09T04:35:25;3.50;;;1.25;;
51521;SDS011;37608;39.766;2.718;2022-09-09T04:37:52;1.17;;;0.82;;
51521;SDS011;37608;39.766;2.718;2022-09-09T04:40:17;2.35;;;1.77;;
51521;SDS011;37608;39.766;2.718;2022-09-09T04:42:42;3.40;;;2.00;;
51521;SDS011;37608;39.766;2.718;2022-09-09T04:45:09;6.18;;;1.88;;
51521;SDS011;37608;39.766;2.718;2022-09-09T04:47:36;2.90;;;1.90;;
51521;SDS011;37608;39.766;2.718;2022-09-09T04:50:01;8.43;;;7.45;;
51521;SDS011;37608;39.766;2.718;2022-09-09T04:52:26;2.88;;;1.52;;
51521;SDS011;37608;39.766;2.718;2022-09-09T04:54:52;2.78;;;1.00;;
51521;SDS011;37608;39.766;2.718;2022-09-09T04:57:19;4.53;;;1.98;;
51521;SDS011;37608;39.766;2.718;2022-09-09T04:59:44;1.83;;;1.25;;
51521;SDS011;37608;39.766;2.718;2022-09-09T05:02:10;15.07;;;1.67;;
51521;SDS011;37608;39.766;2.718;2022-09-09T05:04:36;2.13;;;1.50;;
51521;SDS011;37608;39.766;2.718;2022-09-09T05:07:01;4.90;;;1.65;;
51521;SDS011;37608;39.766;2.718;2022-09-09T05:09:26;1.65;;;1.17;;
51521;SDS011;37608;39.766;2.718;2022-09-09T05:11:51;4.13;;;3.13;;
51521;SDS011;37608;39.766;2.718;2022-09-09T05:14:17;5.60;;;2.72;;
51521;SDS011;37608;39.766;2.718;2022-09-09T05:16:44;3.15;;;1.20;;
51521;SDS011;37608;39.766;2.718;2022-09-09T05:19:09;2.60;;;1.35;;
51521;SDS011;37608;39.766;2.718;2022-09-09T05:21:35;2.03;;;1.60;;
51521;SDS011;37608;39.766;2.718;2022-09-09T05:24:00;2.47;;;1.40;;
51521;SDS011;37608;39.766;2.718;2022-09-09T05:26:26;3.92;;;1.65;;
51521;SDS011;37608;39.766;2.718;2022-09-09T05:28:51;7.53;;;1.67;;
51521;SDS011;37608;39.766;2.718;2022-09-09T05:31:17;4.28;;;1.63;;
51521;SDS011;37608;39.766;2.718;2022-09-09T05:33:43;9.70;;;2.03;;
51521;SDS011;37608;39.766;2.718;2022-09-09T05:36:11;9.55;;;2.15;;
51521;SDS011;37608;39.766;2.718;2022-09-09T05:38:39;3.75;;;1.30;;
51521;SDS011;37608;39.766;2.718;2022-09-09T05:41:05;4.60;;;1.20;;
51521;SDS011;37608;39.766;2.718;2022-09-09T05:43:31;1.52;;;0.65;;
51521;SDS011;37608;39.766;2.718;2022-09-09T05:48:33;4.85;;;3.25;;
51521;SDS011;37608;39.766;2.718;2022-09-09T05:50:59;4.50;;;3.35;;
51521;SDS011;37608;39.766;2.718;2022-09-09T05:53:25;9.70;;;2.85;;
51521;SDS011;37608;39.766;2.718;2022-09-09T05:55:57;16.90;;;2.83;;
51521;SDS011;37608;39.766;2.718;2022-09-09T05:58:23;4.55;;;3.13;;
51521;SDS011;37608;39.766;2.718;2022-09-09T06:00:49;6.00;;;2.63;;
51521;SDS011;37608;39.766;2.718;2022-09-09T06:03:15;12.77;;;5.82;;
51521;SDS011;37608;39.766;2.718;2022-09-09T06:05:42;7.28;;;3.45;;
51521;SDS011;37608;39.766;2.718;2022-09-09T06:08:07;8.63;;;3.40;;
51521;SDS011;37608;39.766;2.718;2022-09-09T06:10:32;10.98;;;4.90;;
51521;SDS011;37608;39.766;2.718;2022-09-09T06:12:59;12.70;;;5.95;;
51521;SDS011;37608;39.766;2.718;2022-09-09T06:15:24;13.13;;;8.52;;
51521;SDS011;37608;39.766;2.718;2022-09-09T06:17:59;8.70;;;5.38;;
51521;SDS011;37608;39.766;2.718;2022-09-09T06:20:24;6.97;;;4.55;;
51521;SDS011;37608;39.766;2.718;2022-09-09T06:22:49;10.85;;;4.15;;
51521;SDS011;37608;39.766;2.718;2022-09-09T06:25:15;24.58;;;5.40;;
51521;SDS011;37608;39.766;2.718;2022-09-09T06:27:40;7.90;;;4.40;;
51521;SDS011;37608;39.766;2.718;2022-09-09T06:30:07;8.10;;;4.93;;
51521;SDS011;37608;39.766;2.718;2022-09-09T06:32:32;5.95;;;4.88;;
51521;SDS011;37608;39.766;2.718;2022-09-09T06:34:59;7.32;;;6.00;;
51521;SDS011;37608;39.766;2.718;2022-09-09T06:37:26;12.13;;;6.25;;
51521;SDS011;37608;39.766;2.718;2022-09-09T06:39:52;8.40;;;7.28;;
51521;SDS011;37608;39.766;2.718;2022-09-09T06:42:18;19.25;;;7.95;;
51521;SDS011;37608;39.766;2.718;2022-09-09T06:44:43;21.83;;;7.57;;
51521;SDS011;37608;39.766;2.718;2022-09-09T06:47:09;15.52;;;8.85;;
51521;SDS011;37608;39.766;2.718;2022-09-09T06:49:34;6.75;;;4.40;;
51521;SDS011;37608;39.766;2.718;2022-09-09T06:52:00;11.52;;;8.88;;
51521;SDS011;37608;39.766;2.718;2022-09-09T06:54:25;13.07;;;5.20;;
51521;SDS011;37608;39.766;2.718;2022-09-09T06:56:50;15.10;;;6.90;;
51521;SDS011;37608;39.766;2.718;2022-09-09T06:59:16;8.70;;;4.35;;
51521;SDS011;37608;39.766;2.718;2022-09-09T07:01:41;7.70;;;5.82;;
51521;SDS011;37608;39.766;2.718;2022-09-09T07:04:08;5.35;;;3.15;;
51521;SDS011;37608;39.766;2.718;2022-09-09T07:06:45;4.05;;;2.85;;
51521;SDS011;37608;39.766;2.718;2022-09-09T07:09:12;8.25;;;2.97;;
51521;SDS011;37608;39.766;2.718;2022-09-09T07:11:48;11.63;;;2.75;;
51521;SDS011;37608;39.766;2.718;2022-09-09T07:14:13;8.82;;;3.63;;
51521;SDS011;37608;39.766;2.718;2022-09-09T07:16:40;8.30;;;2.47;;
51521;SDS011;37608;39.766;2.718;2022-09-09T07:19:05;14.75;;;3.15;;
51521;SDS011;37608;39.766;2.718;2022-09-09T07:21:31;7.20;;;3.13;;
51521;SDS011;37608;39.766;2.718;2022-09-09T07:23:57;3.42;;;2.63;;
51521;SDS011;37608;39.766;2.718;2022-09-09T07:26:23;9.70;;;3.72;;
51521;SDS011;37608;39.766;2.718;2022-09-09T07:28:49;2.85;;;2.08;;
51521;SDS011;37608;39.766;2.718;2022-09-09T07:31:16;12.48;;;1.98;;
51521;SDS011;37608;39.766;2.718;2022-09-09T07:33:43;2.90;;;2.17;;
51521;SDS011;37608;39.766;2.718;2022-09-09T07:36:14;6.90;;;1.55;;
51521;SDS011;37608;39.766;2.718;2022-09-09T07:41:06;3.03;;;1.98;;
51521;SDS011;37608;39.766;2.718;2022-09-09T07:43:33;2.58;;;1.60;;
51521;SDS011;37608;39.766;2.718;2022-09-09T07:45:59;3.17;;;1.25;;
51521;SDS011;37608;39.766;2.718;2022-09-09T07:48:26;4.10;;;2.00;;
51521;SDS011;37608;39.766;2.718;2022-09-09T07:50:51;7.22;;;1.52;;
51521;SDS011;37608;39.766;2.718;2022-09-09T07:53:17;3.30;;;1.40;;
51521;SDS011;37608;39.766;2.718;2022-09-09T07:55:42;2.25;;;1.63;;
51521;SDS011;37608;39.766;2.718;2022-09-09T07:58:08;1.55;;;1.20;;
51521;SDS011;37608;39.766;2.718;2022-09-09T08:00:33;2.95;;;1.05;;
51521;SDS011;37608;39.766;2.718;2022-09-09T08:02:58;8.20;;;2.50;;
51521;SDS011;37608;39.766;2.718;2022-09-09T08:05:25;1.70;;;1.08;;
51521;SDS011;37608;39.766;2.718;2022-09-09T08:07:51;16.35;;;3.10;;
51521;SDS011;37608;39.766;2.718;2022-09-09T08:10:16;3.13;;;1.67;;
51521;SDS011;37608;39.766;2.718;2022-09-09T08:12:43;6.82;;;3.33;;
51521;SDS011;37608;39.766;2.718;2022-09-09T08:15:08;4.85;;;1.65;;
51521;SDS011;37608;39.766;2.718;2022-09-09T08:17:33;7.82;;;1.67;;
51521;SDS011;37608;39.766;2.718;2022-09-09T08:19:59;3.72;;;1.92;;
51521;SDS011;37608;39.766;2.718;2022-09-09T08:22:28;4.40;;;1.95;;
51521;SDS011;37608;39.766;2.718;2022-09-09T08:24:54;6.07;;;1.95;;
51521;SDS011;37608;39.766;2.718;2022-09-09T08:27:19;13.68;;;1.48;;
51521;SDS011;37608;39.766;2.718;2022-09-09T08:29:44;2.60;;;1.83;;
51521;SDS011;37608;39.766;2.718;2022-09-09T08:32:10;4.63;;;1.92;;
51521;SDS011;37608;39.766;2.718;2022-09-09T08:34:35;2.95;;;1.85;;
51521;SDS011;37608;39.766;2.718;2022-09-09T08:37:00;7.10;;;2.97;;
51521;SDS011;37608;39.766;2.718;2022-09-09T08:39:26;1.35;;;0.95;;
51521;SDS011;37608;39.766;2.718;2022-09-09T08:57:47;6.32;;;2.28;;
51521;SDS011;37608;39.766;2.718;2022-09-09T09:00:13;2.22;;;1.52;;
51521;SDS011;37608;39.766;2.718;2022-09-09T09:13:03;3.40;;;1.52;;
51521;SDS011;37608;39.766;2.718;2022-09-09T09:15:38;2.00;;;1.10;;
51521;SDS011;37608;39.766;2.718;2022-09-09T09:18:04;3.65;;;1.73;;
51521;SDS011;37608;39.766;2.718;2022-09-09T09:21:14;1.45;;;1.05;;
51521;SDS011;37608;39.766;2.718;2022-09-09T09:23:22;1.45;;;1.10;;
51521;SDS011;37608;39.766;2.718;2022-09-09T09:25:48;1.98;;;0.77;;
51521;SDS011;37608;39.766;2.718;2022-09-09T09:28:17;2.20;;;1.17;;
51521;SDS011;37608;39.766;2.718;2022-09-09T09:30:44;29.27;;;3.95;;
51521;SDS011;37608;39.766;2.718;2022-09-09T09:33:14;5.30;;;1.55;;
51521;SDS011;37608;39.766;2.718;2022-09-09T09:35:40;3.80;;;1.98;;
51521;SDS011;37608;39.766;2.718;2022-09-09T09:38:24;2.97;;;1.38;;
51521;SDS011;37608;39.766;2.718;2022-09-09T09:40:57;4.00;;;1.40;;
51521;SDS011;37608;39.766;2.718;2022-09-09T09:43:30;4.90;;;1.17;;
51521;SDS011;37608;39.766;2.718;2022-09-09T09:45:55;3.22;;;0.82;;
51521;SDS011;37608;39.766;2.718;2022-09-09T09:48:23;9.30;;;1.10;;
51521;SDS011;37608;39.766;2.718;2022-09-09T09:50:52;14.45;;;5.63;;
51521;SDS011;37608;39.766;2.718;2022-09-09T09:53:24;4.57;;;2.28;;
51521;SDS011;37608;39.766;2.718;2022-09-09T09:55:52;6.13;;;1.40;;
51521;SDS011;37608;39.766;2.718;2022-09-09T09:58:19;8.20;;;1.13;;
51521;SDS011;37608;39.766;2.718;2022-09-09T10:00:48;1.00;;;0.73;;
51521;SDS011;37608;39.766;2.718;2022-09-09T10:05:48;3.38;;;1.77;;
51521;SDS011;37608;39.766;2.718;2022-09-09T10:08:14;5.85;;;1.88;;
51521;SDS011;37608;39.766;2.718;2022-09-09T10:10:59;0.50;;;0.40;;
51521;SDS011;37608;39.766;2.718;2022-09-09T10:18:45;5.03;;;1.15;;
51521;SDS011;37608;39.766;2.718;2022-09-09T10:36:21;9.68;;;1.38;;
51521;SDS011;37608;39.766;2.718;2022-09-09T10:51:40;6.65;;;0.85;;
51521;SDS011;37608;39.766;2.718;2022-09-09T10:54:43;6.28;;;2.95;;
51521;SDS011;37608;39.766;2.718;2022-09-09T10:57:03;4.18;;;1.95;;
51521;SDS011;37608;39.766;2.718;2022-09-09T10:59:35;3.38;;;0.73;;
51521;SDS011;37608;39.766;2.718;2022-09-09T11:02:16;2.38;;;1.02;;
51521;SDS011;37608;39.766;2.718;2022-09-09T11:04:45;1.50;;;1.23;;
51521;SDS011;37608;39.766;2.718;2022-09-09T11:07:13;4.80;;;1.10;;
51521;SDS011;37608;39.766;2.718;2022-09-09T11:12:09;8.15;;;2.92;;
51521;SDS011;37608;39.766;2.718;2022-09-09T11:14:59;2.95;;;1.20;;
51521;SDS011;37608;39.766;2.718;2022-09-09T11:17:24;4.10;;;1.55;;
51521;SDS011;37608;39.766;2.718;2022-09-09T11:19:52;13.52;;;1.90;;
51521;SDS011;37608;39.766;2.718;2022-09-09T11:24:50;2.50;;;1.10;;
51521;SDS011;37608;39.766;2.718;2022-09-09T11:27:28;2.67;;;1.45;;
51521;SDS011;37608;39.766;2.718;2022-09-09T11:40:27;3.38;;;1.65;;
51521;SDS011;37608;39.766;2.718;2022-09-09T11:45:29;6.75;;;1.48;;
51521;SDS011;37608;39.766;2.718;2022-09-09T11:47:58;2.42;;;0.80;;
51521;SDS011;37608;39.766;2.718;2022-09-09T11:52:49;3.78;;;1.13;;
51521;SDS011;37608;39.766;2.718;2022-09-09T11:58:00;2.65;;;1.45;;
51521;SDS011;37608;39.766;2.718;2022-09-09T12:00:45;7.70;;;1.83;;
51521;SDS011;37608;39.766;2.718;2022-09-09T12:05:54;1.40;;;0.75;;
51521;SDS011;37608;39.766;2.718;2022-09-09T12:08:23;2.95;;;0.57;;
51521;SDS011;37608;39.766;2.718;2022-09-09T12:10:55;2.10;;;1.10;;
51521;SDS011;37608;39.766;2.718;2022-09-09T12:13:22;1.42;;;0.95;;
51521;SDS011;37608;39.766;2.718;2022-09-09T12:15:52;5.35;;;1.13;;
51521;SDS011;37608;39.766;2.718;2022-09-09T12:20:51;6.38;;;2.05;;
51521;SDS011;37608;39.766;2.718;2022-09-09T12:23:22;3.47;;;1.17;;
51521;SDS011;37608;39.766;2.718;2022-09-09T12:26:12;2.75;;;1.10;;
51521;SDS011;37608;39.766;2.718;2022-09-09T12:31:17;2.20;;;0.80;;
51521;SDS011;37608;39.766;2.718;2022-09-09T12:33:45;1.38;;;1.08;;
51521;SDS011;37608;39.766;2.718;2022-09-09T12:36:16;2.75;;;1.27;;
51521;SDS011;37608;39.766;2.718;2022-09-09T12:38:44;4.00;;;0.98;;
51521;SDS011;37608;39.766;2.718;2022-09-09T12:41:19;4.30;;;1.58;;
51521;SDS011;37608;39.766;2.718;2022-09-09T12:43:45;6.43;;;1.75;;
51521;SDS011;37608;39.766;2.718;2022-09-09T12:46:14;2.03;;;1.02;;
51521;SDS011;37608;39.766;2.718;2022-09-09T12:48:42;10.10;;;2.15;;
51521;SDS011;37608;39.766;2.718;2022-09-09T12:51:16;3.33;;;1.52;;
51521;SDS011;37608;39.766;2.718;2022-09-09T12:53:43;1.48;;;1.10;;
51521;SDS011;37608;39.766;2.718;2022-09-09T12:56:18;7.00;;;3.33;;
51521;SDS011;37608;39.766;2.718;2022-09-09T12:58:45;9.35;;;5.53;;
51521;SDS011;37608;39.766;2.718;2022-09-09T13:01:18;20.65;;;18.90;;
51521;SDS011;37608;39.766;2.718;2022-09-09T13:03:45;23.33;;;15.45;;
51521;SDS011;37608;39.766;2.718;2022-09-09T13:06:11;22.15;;;20.17;;
51521;SDS011;37608;39.766;2.718;2022-09-09T13:08:37;29.55;;;26.52;;
51521;SDS011;37608;39.766;2.718;2022-09-09T13:11:06;16.23;;;14.57;;
51521;SDS011;37608;39.766;2.718;2022-09-09T13:13:35;14.52;;;12.43;;
51521;SDS011;37608;39.766;2.718;2022-09-09T13:16:02;18.58;;;13.63;;
51521;SDS011;37608;39.766;2.718;2022-09-09T13:18:31;10.90;;;9.77;;
51521;SDS011;37608;39.766;2.718;2022-09-09T13:20:58;17.67;;;15.95;;
51521;SDS011;37608;39.766;2.718;2022-09-09T13:23:28;14.70;;;9.18;;
51521;SDS011;37608;39.766;2.718;2022-09-09T13:25:55;12.98;;;10.48;;
51521;SDS011;37608;39.766;2.718;2022-09-09T13:28:22;5.65;;;5.13;;
51521;SDS011;37608;39.766;2.718;2022-09-09T13:33:32;9.07;;;7.85;;
51521;SDS011;37608;39.766;2.718;2022-09-09T13:35:59;6.07;;;4.47;;
51521;SDS011;37608;39.766;2.718;2022-09-09T13:38:25;7.07;;;5.07;;
51521;SDS011;37608;39.766;2.718;2022-09-09T13:40:59;3.97;;;3.08;;
51521;SDS011;37608;39.766;2.718;2022-09-09T13:43:28;7.03;;;4.13;;
51521;SDS011;37608;39.766;2.718;2022-09-09T13:45:59;4.25;;;2.40;;
51521;SDS011;37608;39.766;2.718;2022-09-09T13:48:25;6.00;;;4.18;;
51521;SDS011;37608;39.766;2.718;2022-09-09T13:50:54;11.23;;;5.07;;
51521;SDS011;37608;39.766;2.718;2022-09-09T13:53:20;4.45;;;3.85;;
51521;SDS011;37608;39.766;2.718;2022-09-09T13:55:45;6.72;;;6.10;;
51521;SDS011;37608;39.766;2.718;2022-09-09T13:58:14;10.52;;;5.13;;
51521;SDS011;37608;39.766;2.718;2022-09-09T14:00:40;9.67;;;5.43;;
51521;SDS011;37608;39.766;2.718;2022-09-09T14:03:05;6.55;;;2.78;;
51521;SDS011;37608;39.766;2.718;2022-09-09T14:05:32;5.78;;;4.25;;
51521;SDS011;37608;39.766;2.718;2022-09-09T14:07:58;10.40;;;4.53;;
51521;SDS011;37608;39.766;2.718;2022-09-09T14:10:25;7.80;;;3.65;;
51521;SDS011;37608;39.766;2.718;2022-09-09T14:12:50;2.75;;;1.63;;
51521;SDS011;37608;39.766;2.718;2022-09-09T14:15:16;10.52;;;3.10;;
51521;SDS011;37608;39.766;2.718;2022-09-09T14:17:41;10.80;;;3.90;;
51521;SDS011;37608;39.766;2.718;2022-09-09T14:20:07;3.80;;;3.45;;
51521;SDS011;37608;39.766;2.718;2022-09-09T14:22:34;4.70;;;2.47;;
51521;SDS011;37608;39.766;2.718;2022-09-09T14:24:59;3.42;;;1.70;;
51521;SDS011;37608;39.766;2.718;2022-09-09T14:27:25;2.58;;;2.17;;
51521;SDS011;37608;39.766;2.718;2022-09-09T14:29:51;9.52;;;3.05;;
51521;SDS011;37608;39.766;2.718;2022-09-09T14:32:17;4.60;;;3.65;;
51521;SDS011;37608;39.766;2.718;2022-09-09T14:34:42;3.60;;;2.95;;
51521;SDS011;37608;39.766;2.718;2022-09-09T14:37:07;3.63;;;1.65;;
51521;SDS011;37608;39.766;2.718;2022-09-09T14:39:33;3.70;;;2.72;;
51521;SDS011;37608;39.766;2.718;2022-09-09T14:41:58;2.85;;;1.77;;
51521;SDS011;37608;39.766;2.718;2022-09-09T14:44:23;4.90;;;2.22;;
51521;SDS011;37608;39.766;2.718;2022-09-09T14:46:49;4.60;;;3.58;;
51521;SDS011;37608;39.766;2.718;2022-09-09T14:49:18;2.58;;;1.75;;
51521;SDS011;37608;39.766;2.718;2022-09-09T14:51:43;4.50;;;3.42;;
51521;SDS011;37608;39.766;2.718;2022-09-09T14:54:08;3.28;;;2.08;;
51521;SDS011;37608;39.766;2.718;2022-09-09T14:56:34;5.10;;;2.80;;
51521;SDS011;37608;39.766;2.718;2022-09-09T14:58:59;2.22;;;1.80;;
51521;SDS011;37608;39.766;2.718;2022-09-09T15:01:28;3.72;;;1.88;;
51521;SDS011;37608;39.766;2.718;2022-09-09T15:03:58;10.27;;;4.20;;
51521;SDS011;37608;39.766;2.718;2022-09-09T15:06:24;3.00;;;2.50;;
51521;SDS011;37608;39.766;2.718;2022-09-09T15:08:50;4.90;;;2.67;;
51521;SDS011;37608;39.766;2.718;2022-09-09T15:11:16;2.75;;;2.08;;
51521;SDS011;37608;39.766;2.718;2022-09-09T15:13:42;3.63;;;2.00;;
51521;SDS011;37608;39.766;2.718;2022-09-09T15:16:12;3.42;;;2.53;;
51521;SDS011;37608;39.766;2.718;2022-09-09T15:18:38;4.13;;;2.03;;
51521;SDS011;37608;39.766;2.718;2022-09-09T15:21:26;1.80;;;1.30;;
51521;SDS011;37608;39.766;2.718;2022-09-09T15:23:52;2.33;;;1.45;;
51521;SDS011;37608;39.766;2.718;2022-09-09T15:26:18;2.60;;;1.92;;
51521;SDS011;37608;39.766;2.718;2022-09-09T15:28:44;2.97;;;1.20;;
51521;SDS011;37608;39.766;2.718;2022-09-09T15:33:39;1.88;;;1.55;;
51521;SDS011;37608;39.766;2.718;2022-09-09T15:38:43;2.83;;;1.42;;
51521;SDS011;37608;39.766;2.718;2022-09-09T15:41:09;7.18;;;2.35;;
51521;SDS011;37608;39.766;2.718;2022-09-09T15:43:34;1.15;;;0.88;;
51521;SDS011;37608;39.766;2.718;2022-09-09T15:46:02;5.95;;;2.53;;
51521;SDS011;37608;39.766;2.718;2022-09-09T15:48:30;8.00;;;1.52;;
51521;SDS011;37608;39.766;2.718;2022-09-09T15:51:03;18.00;;;2.20;;
51521;SDS011;37608;39.766;2.718;2022-09-09T15:53:29;2.00;;;1.50;;
51521;SDS011;37608;39.766;2.718;2022-09-09T15:55:57;6.53;;;1.73;;
51521;SDS011;37608;39.766;2.718;2022-09-09T15:58:22;2.85;;;1.45;;
51521;SDS011;37608;39.766;2.718;2022-09-09T16:00:48;5.88;;;1.98;;
51521;SDS011;37608;39.766;2.718;2022-09-09T16:03:13;3.33;;;1.33;;
51521;SDS011;37608;39.766;2.718;2022-09-09T16:05:38;2.40;;;1.25;;
51521;SDS011;37608;39.766;2.718;2022-09-09T16:08:03;4.07;;;1.13;;
51521;SDS011;37608;39.766;2.718;2022-09-09T16:10:29;2.05;;;1.52;;
51521;SDS011;37608;39.766;2.718;2022-09-09T16:12:55;9.35;;;1.77;;
51521;SDS011;37608;39.766;2.718;2022-09-09T16:15:21;2.97;;;1.52;;
51521;SDS011;37608;39.766;2.718;2022-09-09T16:17:48;5.07;;;1.65;;
51521;SDS011;37608;39.766;2.718;2022-09-09T16:20:13;1.65;;;1.25;;
51521;SDS011;37608;39.766;2.718;2022-09-09T16:22:39;6.22;;;2.45;;
51521;SDS011;37608;39.766;2.718;2022-09-09T16:25:05;3.70;;;1.67;;
51521;SDS011;37608;39.766;2.718;2022-09-09T16:27:31;6.82;;;2.05;;
51521;SDS011;37608;39.766;2.718;2022-09-09T16:29:56;5.05;;;2.60;;
51521;SDS011;37608;39.766;2.718;2022-09-09T16:32:22;3.85;;;1.30;;
51521;SDS011;37608;39.766;2.718;2022-09-09T16:34:47;5.13;;;1.77;;
51521;SDS011;37608;39.766;2.718;2022-09-09T16:37:12;7.55;;;4.32;;
51521;SDS011;37608;39.766;2.718;2022-09-09T16:39:38;2.28;;;1.55;;
51521;SDS011;37608;39.766;2.718;2022-09-09T16:42:03;9.18;;;3.30;;
51521;SDS011;37608;39.766;2.718;2022-09-09T16:44:29;3.30;;;2.40;;
51521;SDS011;37608;39.766;2.718;2022-09-09T16:46:55;11.13;;;1.63;;
51521;SDS011;37608;39.766;2.718;2022-09-09T16:49:20;8.45;;;2.63;;
51521;SDS011;37608;39.766;2.718;2022-09-09T16:51:46;5.35;;;1.60;;
51521;SDS011;37608;39.766;2.718;2022-09-09T16:54:12;4.50;;;1.92;;
51521;SDS011;37608;39.766;2.718;2022-09-09T16:56:39;5.15;;;2.25;;
51521;SDS011;37608;39.766;2.718;2022-09-09T16:59:10;4.68;;;2.10;;
51521;SDS011;37608;39.766;2.718;2022-09-09T17:01:37;6.75;;;2.75;;
51521;SDS011;37608;39.766;2.718;2022-09-09T17:04:04;5.70;;;2.40;;
51521;SDS011;37608;39.766;2.718;2022-09-09T17:06:30;2.05;;;0.90;;
51521;SDS011;37608;39.766;2.718;2022-09-09T17:08:58;12.07;;;3.20;;
51521;SDS011;37608;39.766;2.718;2022-09-09T17:11:24;3.55;;;1.45;;
51521;SDS011;37608;39.766;2.718;2022-09-09T17:13:49;3.45;;;1.90;;
51521;SDS011;37608;39.766;2.718;2022-09-09T17:16:16;22.08;;;1.75;;
51521;SDS011;37608;39.766;2.718;2022-09-09T17:18:42;20.48;;;4.03;;